createdAt,value
2022-11-23T00:00:14.923Z,94.78
2022-11-23T00:01:14.899Z,94.89
2022-11-23T00:02:14.941Z,94.89
2022-11-23T00:03:14.892Z,94.89
2022-11-23T00:04:14.848Z,94.78
2022-11-23T00:05:14.874Z,94.48
2022-11-23T00:06:14.842Z,94.58
2022-11-23T00:07:14.875Z,94.58
2022-11-23T00:08:14.800Z,94.58
2022-11-23T00:09:14.798Z,94.48
2022-11-23T00:10:14.803Z,94.37
2022-11-23T00:11:14.780Z,94.48
2022-11-23T00:12:14.748Z,94.48
2022-11-23T00:13:14.746Z,94.58
2022-11-23T00:14:14.717Z,94.68
2022-11-23T00:15:14.736Z,94.58
2022-11-23T00:16:14.705Z,94.37
2022-11-23T00:17:14.696Z,94.37
2022-11-23T00:18:14.690Z,94.48
2022-11-23T00:19:14.700Z,94.48
2022-11-23T00:20:14.679Z,94.48
2022-11-23T00:21:14.658Z,94.54
2022-11-23T00:22:14.615Z,94.78
2022-11-23T00:23:14.639Z,94.89
2022-11-23T00:24:14.608Z,95.09
2022-11-23T00:25:14.633Z,95.09
2022-11-23T00:26:14.579Z,94.89
2022-11-23T00:27:14.578Z,94.95
2022-11-23T00:28:14.569Z,94.95
2022-11-23T00:29:14.548Z,94.95
2022-11-23T00:30:14.540Z,95.09
2022-11-23T00:31:14.530Z,95.25
2022-11-23T00:32:14.484Z,95.15
2022-11-23T00:33:14.494Z,95.25
2022-11-23T00:34:14.477Z,95.20
2022-11-23T00:35:14.474Z,95.15
2022-11-23T00:36:14.445Z,95.25
2022-11-23T00:37:14.437Z,95.36
2022-11-23T00:38:14.413Z,95.36
2022-11-23T00:39:14.416Z,95.36
2022-11-23T00:40:14.419Z,95.25
2022-11-23T00:41:14.398Z,95.25
2022-11-23T00:42:14.360Z,95.25
2022-11-23T00:43:14.360Z,95.15
2022-11-23T00:44:14.349Z,95.05
2022-11-23T00:45:14.355Z,95.15
2022-11-23T00:46:14.315Z,95.05
2022-11-23T00:47:14.325Z,94.95
2022-11-23T00:48:14.294Z,94.84
2022-11-23T00:49:14.294Z,94.84
2022-11-23T00:50:14.272Z,94.64
2022-11-23T00:51:14.275Z,94.64
2022-11-23T00:52:14.243Z,94.64
2022-11-23T00:53:14.230Z,94.54
2022-11-23T00:54:14.214Z,94.64
2022-11-23T00:55:14.220Z,94.64
2022-11-23T00:56:14.176Z,94.64
2022-11-23T00:57:14.170Z,94.43
2022-11-23T00:58:14.151Z,94.43
2022-11-23T00:59:14.150Z,94.23
2022-11-23T01:00:14.154Z,94.12
2022-11-23T01:01:14.210Z,94.23
2022-11-23T01:02:14.107Z,94.23
2022-11-23T01:03:14.112Z,94.23
2022-11-23T01:04:14.108Z,94.12
2022-11-23T01:05:14.115Z,93.98
2022-11-23T01:06:14.047Z,93.87
2022-11-23T01:07:14.111Z,93.57
2022-11-23T01:08:14.041Z,93.57
2022-11-23T01:09:14.027Z,93.67
2022-11-23T01:10:14.019Z,93.67
2022-11-23T01:11:14.005Z,93.46
2022-11-23T01:12:13.967Z,93.46
2022-11-23T01:13:13.999Z,93.46
2022-11-23T01:14:13.942Z,93.46
2022-11-23T01:15:13.965Z,93.67
2022-11-23T01:16:13.951Z,93.67
2022-11-23T01:17:13.930Z,93.67
2022-11-23T01:18:13.919Z,93.67
2022-11-23T01:19:13.907Z,93.87
2022-11-23T01:20:13.916Z,93.67
2022-11-23T01:21:13.865Z,93.67
2022-11-23T01:22:13.843Z,93.67
2022-11-23T01:23:13.839Z,93.67
2022-11-23T01:25:08.981Z,93.57
2022-11-23T01:26:08.953Z,93.67
2022-11-23T01:27:08.945Z,93.46
2022-11-23T01:28:08.896Z,93.67
2022-11-23T01:29:08.922Z,93.57
2022-11-23T01:30:08.913Z,93.36
2022-11-23T01:31:08.876Z,93.46
2022-11-23T01:32:08.861Z,93.36
2022-11-23T01:33:08.837Z,93.57
2022-11-23T01:34:08.802Z,93.57
2022-11-23T01:35:08.860Z,93.36
2022-11-23T01:36:08.800Z,93.36
2022-11-23T01:37:08.804Z,93.36
2022-11-23T01:38:11.471Z,93.26
2022-11-23T01:39:09.748Z,93.16
2022-11-23T01:40:08.770Z,93.05
2022-11-23T01:41:08.764Z,93.05
2022-11-23T01:42:08.730Z,92.95
2022-11-23T01:43:08.737Z,93.16
2022-11-23T01:44:08.710Z,93.05
2022-11-23T01:45:08.716Z,93.05
2022-11-23T01:46:08.661Z,93.05
2022-11-23T01:47:08.700Z,93.26
2022-11-23T01:48:08.640Z,93.16
2022-11-23T01:49:08.658Z,93.16
2022-11-23T01:50:08.639Z,93.16
2022-11-23T01:51:08.618Z,93.26
2022-11-23T01:52:08.584Z,93.26
2022-11-23T01:53:08.603Z,93.36
2022-11-23T01:54:08.587Z,93.57
2022-11-23T01:55:08.843Z,93.57
2022-11-23T01:56:08.549Z,93.57
2022-11-23T01:57:08.557Z,93.67
2022-11-23T01:58:08.499Z,93.57
2022-11-23T01:59:08.488Z,93.57
2022-11-23T02:00:08.522Z,93.77
2022-11-23T02:01:08.579Z,93.87
2022-11-23T02:02:08.485Z,93.98
2022-11-23T02:03:08.463Z,93.98
2022-11-23T02:04:08.480Z,93.98
2022-11-23T02:05:08.448Z,94.08
2022-11-23T02:06:08.436Z,94.08
2022-11-23T02:07:08.497Z,93.98
2022-11-23T02:08:08.373Z,94.08
2022-11-23T02:09:08.384Z,94.18
2022-11-23T02:10:08.345Z,94.18
2022-11-23T02:11:08.382Z,94.18
2022-11-23T02:12:08.337Z,94.08
2022-11-23T02:13:08.334Z,94.18
2022-11-23T02:14:08.339Z,94.18
2022-11-23T02:15:08.298Z,94.18
2022-11-23T02:16:08.297Z,94.18
2022-11-23T02:17:08.265Z,94.12
2022-11-23T02:18:08.286Z,94.18
2022-11-23T02:19:08.257Z,94.18
2022-11-23T02:20:08.232Z,94.18
2022-11-23T02:21:08.236Z,94.33
2022-11-23T02:22:08.283Z,94.33
2022-11-23T02:23:08.256Z,94.43
2022-11-23T02:24:08.195Z,94.43
2022-11-23T02:25:08.153Z,94.43
2022-11-23T02:26:08.162Z,94.33
2022-11-23T02:27:08.132Z,94.33
2022-11-23T02:28:08.151Z,94.39
2022-11-23T02:29:08.133Z,94.39
2022-11-23T02:30:08.110Z,94.49
2022-11-23T02:31:08.106Z,94.49
2022-11-23T02:32:08.066Z,94.49
2022-11-23T02:33:08.083Z,94.49
2022-11-23T02:34:08.030Z,94.39
2022-11-23T02:35:08.044Z,94.39
2022-11-23T02:36:08.021Z,94.29
2022-11-23T02:37:08.044Z,94.29
2022-11-23T02:38:07.990Z,94.29
2022-11-23T02:39:08.003Z,94.29
2022-11-23T02:40:07.959Z,94.39
2022-11-23T02:41:08.004Z,94.49
2022-11-23T02:42:07.950Z,94.49
2022-11-23T02:43:07.952Z,94.49
2022-11-23T02:44:07.934Z,94.59
2022-11-23T02:45:07.909Z,94.70
2022-11-23T02:46:07.877Z,94.80
2022-11-23T02:47:07.965Z,94.70
2022-11-23T02:48:07.880Z,94.59
2022-11-23T02:49:07.864Z,94.49
2022-11-23T02:50:07.922Z,94.49
2022-11-23T02:51:07.831Z,94.39
2022-11-23T02:52:07.808Z,94.39
2022-11-23T02:53:07.817Z,94.39
2022-11-23T02:54:07.788Z,94.49
2022-11-23T02:55:07.827Z,94.49
2022-11-23T02:56:07.750Z,94.49
2022-11-23T02:57:07.757Z,94.49
2022-11-23T02:58:07.752Z,94.49
2022-11-23T02:59:07.726Z,94.49
2022-11-23T03:00:07.812Z,94.59
2022-11-23T03:01:07.738Z,94.59
2022-11-23T03:02:07.676Z,94.59
2022-11-23T03:03:07.676Z,94.59
2022-11-23T03:04:07.665Z,94.59
2022-11-23T03:05:07.660Z,94.59
2022-11-23T03:06:07.629Z,94.70
2022-11-23T03:07:07.682Z,94.70
2022-11-23T03:08:07.667Z,94.74
2022-11-23T03:09:07.615Z,94.70
2022-11-23T03:10:07.596Z,94.84
2022-11-23T03:11:07.595Z,94.90
2022-11-23T03:12:07.575Z,94.95
2022-11-23T03:13:07.577Z,94.95
2022-11-23T03:14:07.525Z,95.01
2022-11-23T03:15:07.518Z,95.05
2022-11-23T03:16:07.483Z,95.15
2022-11-23T03:17:07.518Z,95.25
2022-11-23T03:18:07.457Z,95.36
2022-11-23T03:19:07.493Z,95.36
2022-11-23T03:20:07.432Z,95.56
2022-11-23T03:21:07.445Z,95.56
2022-11-23T03:22:07.436Z,95.56
2022-11-23T03:23:07.413Z,95.56
2022-11-23T03:24:07.406Z,95.56
2022-11-23T03:25:07.386Z,95.67
2022-11-23T03:26:12.687Z,95.67
2022-11-23T03:27:07.385Z,95.77
2022-11-23T03:28:07.361Z,95.77
2022-11-23T03:29:07.361Z,95.87
2022-11-23T03:30:07.340Z,95.87
2022-11-23T03:31:07.326Z,95.97
2022-11-23T03:32:07.327Z,95.97
2022-11-23T03:33:07.305Z,96.18
2022-11-23T03:34:07.271Z,96.28
2022-11-23T03:35:07.290Z,96.28
2022-11-23T03:36:07.229Z,96.18
2022-11-23T03:37:07.284Z,96.18
2022-11-23T03:38:07.221Z,96.08
2022-11-23T03:39:07.218Z,96.08
2022-11-23T03:40:07.178Z,96.08
2022-11-23T03:41:07.198Z,95.97
2022-11-23T03:42:07.164Z,96.08
2022-11-23T03:43:07.178Z,96.08
2022-11-23T03:44:07.158Z,96.08
2022-11-23T03:45:07.192Z,96.18
2022-11-23T03:46:07.111Z,96.18
2022-11-23T03:47:07.113Z,96.18
2022-11-23T03:48:07.082Z,96.28
2022-11-23T03:49:07.095Z,96.39
2022-11-23T03:50:07.071Z,96.39
2022-11-23T03:51:07.049Z,96.48
2022-11-23T03:52:07.058Z,96.48
2022-11-23T03:53:07.054Z,96.59
2022-11-23T03:54:06.997Z,96.59
2022-11-23T03:55:07.030Z,96.59
2022-11-23T03:56:06.986Z,96.59
2022-11-23T03:57:07.022Z,96.59
2022-11-23T03:58:06.970Z,96.59
2022-11-23T03:59:06.950Z,96.59
2022-11-23T04:00:06.940Z,96.59
2022-11-23T04:01:06.991Z,96.59
2022-11-23T04:02:06.948Z,96.48
2022-11-23T04:03:06.930Z,96.48
2022-11-23T04:04:06.899Z,96.39
2022-11-23T04:05:06.876Z,96.39
2022-11-23T04:06:06.835Z,96.28
2022-11-23T04:07:06.906Z,96.28
2022-11-23T04:08:06.840Z,96.28
2022-11-23T04:09:06.808Z,96.28
2022-11-23T04:10:06.818Z,96.18
2022-11-23T04:11:06.824Z,96.18
2022-11-23T04:12:06.817Z,96.18
2022-11-23T04:13:06.815Z,96.08
2022-11-23T04:14:06.801Z,95.97
2022-11-23T04:15:06.738Z,95.97
2022-11-23T04:16:06.724Z,95.97
2022-11-23T04:17:06.723Z,95.87
2022-11-23T04:18:06.756Z,95.77
2022-11-23T04:19:06.734Z,95.56
2022-11-23T04:20:06.666Z,95.36
2022-11-23T04:21:06.696Z,95.15
2022-11-23T04:22:06.652Z,95.05
2022-11-23T04:23:11.774Z,95.05
2022-11-23T04:24:07.633Z,94.95
2022-11-23T04:25:06.641Z,94.84
2022-11-23T04:26:06.575Z,94.84
2022-11-23T04:27:06.605Z,94.95
2022-11-23T04:28:06.624Z,94.95
2022-11-23T04:29:06.611Z,94.95
2022-11-23T04:30:06.556Z,94.95
2022-11-23T04:31:06.556Z,94.95
2022-11-23T04:32:06.530Z,94.95
2022-11-23T04:33:06.544Z,94.95
2022-11-23T04:34:06.529Z,94.74
2022-11-23T04:35:06.469Z,94.54
2022-11-23T04:36:06.478Z,94.54
2022-11-23T04:37:10.288Z,94.33
2022-11-23T04:38:07.450Z,94.43
2022-11-23T04:39:06.446Z,94.23
2022-11-23T04:40:06.409Z,93.92
2022-11-23T04:41:06.457Z,93.92
2022-11-23T04:42:06.361Z,93.92
2022-11-23T04:43:06.385Z,93.71
2022-11-23T04:44:06.375Z,93.71
2022-11-23T04:45:06.394Z,93.82
2022-11-23T04:46:06.326Z,93.71
2022-11-23T04:47:06.383Z,93.51
2022-11-23T04:48:06.335Z,93.51
2022-11-23T04:49:06.317Z,93.40
2022-11-23T04:50:06.280Z,93.30
2022-11-23T04:51:06.296Z,93.30
2022-11-23T04:52:06.272Z,93.30
2022-11-23T04:53:06.267Z,93.30
2022-11-23T04:54:06.250Z,93.30
2022-11-23T04:55:06.216Z,93.57
2022-11-23T04:56:06.195Z,93.40
2022-11-23T04:57:06.221Z,93.30
2022-11-23T04:58:06.199Z,93.20
2022-11-23T04:59:06.219Z,93.30
2022-11-23T05:00:06.134Z,93.36
2022-11-23T05:01:06.288Z,93.30
2022-11-23T05:02:06.188Z,93.20
2022-11-23T05:03:06.235Z,92.99
2022-11-23T05:04:06.105Z,92.99
2022-11-23T05:05:06.108Z,92.95
2022-11-23T05:06:06.064Z,92.85
2022-11-23T05:07:06.140Z,93.16
2022-11-23T05:08:06.087Z,93.05
2022-11-23T05:09:06.052Z,93.16
2022-11-23T05:10:06.007Z,93.16
2022-11-23T05:11:06.033Z,93.26
2022-11-23T05:12:06.013Z,93.36
2022-11-23T05:13:06.010Z,93.46
2022-11-23T05:14:05.958Z,93.67
2022-11-23T05:15:06.032Z,93.77
2022-11-23T05:16:05.957Z,93.92
2022-11-23T05:17:05.936Z,94.02
2022-11-23T05:18:05.922Z,94.02
2022-11-23T05:19:05.912Z,93.92
2022-11-23T05:20:05.962Z,93.92
2022-11-23T05:21:05.875Z,94.12
2022-11-23T05:22:05.892Z,94.12
2022-11-23T05:23:05.877Z,94.23
2022-11-23T05:24:05.858Z,94.23
2022-11-23T05:25:05.906Z,94.23
2022-11-23T05:26:05.852Z,94.23
2022-11-23T05:27:05.834Z,94.33
2022-11-23T05:28:30.135Z,94.33
2022-11-23T05:29:06.793Z,94.43
2022-11-23T05:30:05.749Z,94.54
2022-11-23T05:31:05.762Z,94.54
2022-11-23T05:32:05.769Z,94.54
2022-11-23T05:33:05.721Z,94.64
2022-11-23T05:34:05.782Z,94.74
2022-11-23T05:35:05.698Z,94.64
2022-11-23T05:36:05.781Z,94.54
2022-11-23T05:37:05.677Z,94.54
2022-11-23T05:38:05.677Z,94.64
2022-11-23T05:39:05.662Z,94.64
2022-11-23T05:40:05.648Z,94.64
2022-11-23T05:41:05.649Z,94.74
2022-11-23T05:42:05.653Z,94.74
2022-11-23T05:43:05.591Z,94.84
2022-11-23T05:44:05.584Z,94.84
2022-11-23T05:45:11.122Z,94.95
2022-11-23T05:46:06.588Z,95.05
2022-11-23T05:47:05.520Z,95.15
2022-11-23T05:48:05.549Z,95.25
2022-11-23T05:49:05.537Z,95.46
2022-11-23T05:50:05.514Z,95.67
2022-11-23T05:51:05.797Z,95.87
2022-11-23T05:52:05.559Z,95.97
2022-11-23T05:53:05.448Z,96.08
2022-11-23T05:54:05.525Z,96.18
2022-11-23T05:55:05.475Z,96.28
2022-11-23T05:56:05.529Z,96.39
2022-11-23T05:57:05.418Z,96.39
2022-11-23T05:58:05.416Z,96.39
2022-11-23T05:59:05.442Z,96.48
2022-11-23T06:00:05.570Z,96.53
2022-11-23T06:01:05.427Z,96.53
2022-11-23T06:02:05.398Z,96.53
2022-11-23T06:03:05.336Z,96.53
2022-11-23T06:04:05.399Z,96.43
2022-11-23T06:05:05.314Z,96.43
2022-11-23T06:06:05.310Z,96.43
2022-11-23T06:07:05.394Z,96.33
2022-11-23T06:08:05.296Z,96.22
2022-11-23T06:09:05.336Z,96.22
2022-11-23T06:10:05.270Z,96.22
2022-11-23T06:11:05.281Z,96.02
2022-11-23T06:12:05.323Z,96.02
2022-11-23T06:13:05.216Z,95.92
2022-11-23T06:14:07.762Z,95.81
2022-11-23T06:15:06.192Z,95.77
2022-11-23T06:16:05.194Z,95.61
2022-11-23T06:17:05.163Z,95.50
2022-11-23T06:18:05.235Z,95.40
2022-11-23T06:19:05.694Z,95.30
2022-11-23T06:20:05.145Z,95.30
2022-11-23T06:21:05.112Z,95.15
2022-11-23T06:22:05.154Z,95.20
2022-11-23T06:23:05.077Z,95.09
2022-11-23T06:24:05.121Z,94.95
2022-11-23T06:25:05.053Z,94.84
2022-11-23T06:26:05.094Z,94.99
2022-11-23T06:27:05.032Z,94.84
2022-11-23T06:28:05.008Z,94.84
2022-11-23T06:29:05.004Z,94.74
2022-11-23T06:30:05.058Z,94.74
2022-11-23T06:31:04.981Z,94.54
2022-11-23T06:32:04.975Z,94.33
2022-11-23T06:33:05.040Z,94.02
2022-11-23T06:34:04.952Z,94.02
2022-11-23T06:35:04.908Z,93.92
2022-11-23T06:36:04.921Z,93.82
2022-11-23T06:37:04.869Z,93.82
2022-11-23T06:38:04.964Z,93.71
2022-11-23T06:39:04.932Z,93.61
2022-11-23T06:40:04.853Z,93.61
2022-11-23T06:41:04.841Z,93.61
2022-11-23T06:42:23.825Z,93.51
2022-11-23T06:43:05.843Z,93.30
2022-11-23T06:44:04.817Z,93.40
2022-11-23T06:45:04.772Z,93.40
2022-11-23T06:46:04.796Z,93.30
2022-11-23T06:47:04.775Z,92.89
2022-11-23T06:48:04.790Z,92.69
2022-11-23T06:49:04.775Z,92.69
2022-11-23T06:50:04.743Z,92.69
2022-11-23T06:51:04.757Z,92.79
2022-11-23T06:52:04.716Z,92.79
2022-11-23T06:53:04.695Z,92.69
2022-11-23T06:54:04.702Z,92.48
2022-11-23T06:55:04.686Z,92.17
2022-11-23T06:56:04.682Z,92.07
2022-11-23T06:57:04.629Z,92.07
2022-11-23T06:58:04.644Z,91.97
2022-11-23T06:59:04.586Z,91.86
2022-11-23T07:00:04.583Z,91.86
2022-11-23T07:01:04.674Z,91.97
2022-11-23T07:02:04.577Z,91.66
2022-11-23T07:03:04.561Z,91.55
2022-11-23T07:04:04.531Z,91.66
2022-11-23T07:05:04.534Z,91.76
2022-11-23T07:06:04.576Z,91.49
2022-11-23T07:07:04.678Z,91.60
2022-11-23T07:08:04.554Z,91.70
2022-11-23T07:09:04.466Z,91.70
2022-11-23T07:10:07.280Z,91.60
2022-11-23T07:11:04.483Z,91.70
2022-11-23T07:12:04.433Z,91.70
2022-11-23T07:13:04.392Z,91.70
2022-11-23T07:14:04.400Z,91.70
2022-11-23T07:15:04.395Z,91.80
2022-11-23T07:16:04.414Z,91.60
2022-11-23T07:17:04.381Z,91.49
2022-11-23T07:18:04.386Z,91.80
2022-11-23T07:19:04.374Z,91.91
2022-11-23T07:20:04.353Z,92.01
2022-11-23T07:21:04.327Z,91.91
2022-11-23T07:22:04.313Z,92.01
2022-11-23T07:23:04.303Z,91.95
2022-11-23T07:24:04.289Z,92.05
2022-11-23T07:25:04.318Z,92.36
2022-11-23T07:26:04.270Z,92.46
2022-11-23T07:27:04.260Z,92.46
2022-11-23T07:28:04.230Z,92.36
2022-11-23T07:29:04.234Z,92.25
2022-11-23T07:30:04.208Z,92.36
2022-11-23T07:31:04.193Z,92.57
2022-11-23T07:32:04.181Z,92.57
2022-11-23T07:33:04.177Z,92.36
2022-11-23T07:34:04.172Z,92.36
2022-11-23T07:35:04.152Z,92.25
2022-11-23T07:36:04.131Z,92.25
2022-11-23T07:37:04.102Z,92.36
2022-11-23T07:38:04.139Z,92.25
2022-11-23T07:39:04.058Z,92.05
2022-11-23T07:40:04.324Z,91.95
2022-11-23T07:41:04.059Z,91.85
2022-11-23T07:42:31.747Z,91.74
2022-11-23T07:43:05.041Z,91.74
2022-11-23T07:44:04.006Z,91.53
2022-11-23T07:45:04.009Z,91.33
2022-11-23T07:46:04.012Z,91.33
2022-11-23T07:47:03.993Z,91.33
2022-11-23T07:48:04.018Z,91.33
2022-11-23T07:49:03.970Z,91.44
2022-11-23T07:50:04.007Z,91.33
2022-11-23T07:51:03.933Z,91.23
2022-11-23T07:52:03.926Z,91.33
2022-11-23T07:53:03.903Z,91.33
2022-11-23T07:54:03.927Z,91.13
2022-11-23T07:55:03.897Z,90.92
2022-11-23T07:56:03.890Z,90.81
2022-11-23T07:57:03.843Z,90.81
2022-11-23T07:58:03.836Z,90.81
2022-11-23T07:59:03.817Z,90.92
2022-11-23T08:00:03.813Z,90.81
2022-11-23T08:01:03.803Z,90.51
2022-11-23T08:02:03.809Z,90.16
2022-11-23T08:03:26.731Z,90.26
2022-11-23T08:04:04.795Z,89.85
2022-11-23T08:05:03.729Z,89.95
2022-11-23T08:06:03.753Z,89.44
2022-11-23T08:07:03.716Z,89.23
2022-11-23T08:08:06.552Z,89.75
2022-11-23T08:09:03.717Z,89.85
2022-11-23T08:10:03.950Z,89.75
2022-11-23T08:11:03.682Z,89.54
2022-11-23T08:12:03.691Z,89.64
2022-11-23T08:13:03.691Z,89.54
2022-11-23T08:14:03.653Z,89.50
2022-11-23T08:15:03.637Z,89.60
2022-11-23T08:16:03.611Z,89.29
2022-11-23T08:17:03.608Z,89.40
2022-11-23T08:18:04.263Z,89.29
2022-11-23T08:19:03.549Z,89.09
2022-11-23T08:20:04.930Z,88.98
2022-11-23T08:21:04.562Z,88.98
2022-11-23T08:22:03.552Z,89.09
2022-11-23T08:23:03.547Z,89.19
2022-11-23T08:24:03.534Z,89.29
2022-11-23T08:25:03.507Z,89.09
2022-11-23T08:26:06.567Z,88.98
2022-11-23T08:27:04.486Z,88.98
2022-11-23T08:28:03.480Z,89.19
2022-11-23T08:29:03.447Z,89.29
2022-11-23T08:30:03.475Z,89.50
2022-11-23T08:31:03.440Z,89.25
2022-11-23T08:32:03.439Z,89.29
2022-11-23T08:33:03.386Z,89.46
2022-11-23T08:34:03.934Z,89.56
2022-11-23T08:35:03.419Z,89.66
2022-11-23T08:36:03.375Z,89.76
2022-11-23T08:37:03.315Z,89.66
2022-11-23T08:38:03.362Z,89.66
2022-11-23T08:39:03.300Z,89.76
2022-11-23T08:40:03.322Z,90.08
2022-11-23T08:41:03.275Z,90.08
2022-11-23T08:42:03.292Z,89.87
2022-11-23T08:43:03.269Z,89.87
2022-11-23T08:44:03.313Z,89.76
2022-11-23T08:45:03.256Z,89.66
2022-11-23T08:46:06.797Z,89.56
2022-11-23T08:47:04.208Z,89.56
2022-11-23T08:48:03.217Z,89.87
2022-11-23T08:49:03.216Z,89.66
2022-11-23T08:50:03.205Z,89.66
2022-11-23T08:51:03.135Z,89.87
2022-11-23T08:52:03.149Z,89.76
2022-11-23T08:53:03.151Z,89.76
2022-11-23T08:54:03.149Z,89.56
2022-11-23T08:55:03.102Z,89.66
2022-11-23T08:56:03.086Z,89.46
2022-11-23T08:57:03.091Z,88.84
2022-11-23T08:58:03.093Z,88.39
2022-11-23T08:59:03.025Z,88.59
2022-11-23T09:00:03.043Z,88.80
2022-11-23T09:01:03.004Z,88.70
2022-11-23T09:02:03.032Z,88.49
2022-11-23T09:03:02.984Z,88.29
2022-11-23T09:04:03.023Z,87.98
2022-11-23T09:05:03.005Z,88.08
2022-11-23T09:06:03.018Z,87.88
2022-11-23T09:07:02.971Z,87.67
2022-11-23T09:08:02.982Z,87.77
2022-11-23T09:09:02.960Z,87.46
2022-11-23T09:10:02.966Z,87.57
2022-11-23T09:11:02.929Z,87.16
2022-11-23T09:12:02.938Z,87.26
2022-11-23T09:13:02.870Z,87.26
2022-11-23T09:14:02.888Z,87.16
2022-11-23T09:15:02.927Z,87.12
2022-11-23T09:16:02.860Z,86.81
2022-11-23T09:17:02.834Z,86.81
2022-11-23T09:18:02.889Z,87.22
2022-11-23T09:19:02.799Z,87.32
2022-11-23T09:20:02.820Z,87.32
2022-11-23T09:21:02.777Z,86.91
2022-11-23T09:22:02.768Z,86.91
2022-11-23T09:23:02.766Z,86.91
2022-11-23T09:24:02.770Z,86.91
2022-11-23T09:25:02.892Z,86.91
2022-11-23T09:26:02.689Z,87.12
2022-11-23T09:27:02.696Z,87.02
2022-11-23T09:28:02.715Z,86.50
2022-11-23T09:29:02.651Z,86.50
2022-11-23T09:30:02.716Z,86.50
2022-11-23T09:31:02.616Z,86.81
2022-11-23T09:32:02.648Z,86.60
2022-11-23T09:33:02.627Z,86.30
2022-11-23T09:34:02.615Z,86.71
2022-11-23T09:35:02.617Z,86.60
2022-11-23T09:36:02.549Z,86.19
2022-11-23T09:37:02.545Z,85.38
2022-11-23T09:38:02.598Z,85.17
2022-11-23T09:39:02.562Z,85.47
2022-11-23T09:40:02.516Z,85.47
2022-11-23T09:41:02.538Z,85.62
2022-11-23T09:42:02.491Z,84.80
2022-11-23T09:43:02.512Z,84.28
2022-11-23T09:44:02.478Z,84.49
2022-11-23T09:45:02.579Z,83.98
2022-11-23T09:46:02.426Z,84.28
2022-11-23T09:47:23.622Z,84.90
2022-11-23T09:48:02.423Z,85.31
2022-11-23T09:49:02.414Z,85.31
2022-11-23T09:50:02.581Z,84.80
2022-11-23T09:51:13.653Z,84.49
2022-11-23T10:00:45.880Z,82.50
2022-11-23T10:03:04.532Z,82.50
2022-11-23T10:04:04.450Z,82.40
2022-11-23T10:05:04.454Z,82.19
2022-11-23T10:06:04.553Z,81.95
2022-11-23T10:10:42.800Z,80.10
2022-11-23T10:14:27.740Z,79.93
2022-11-23T10:15:27.432Z,80.55
2022-11-23T10:16:27.524Z,81.06
2022-11-23T10:17:28.710Z,81.16
2022-11-23T10:18:28.433Z,81.57
2022-11-23T10:19:27.413Z,80.86
2022-11-23T10:20:27.408Z,81.16
2022-11-23T10:21:27.358Z,80.76
2022-11-23T10:22:27.371Z,80.86
2022-11-23T10:23:27.313Z,80.96
2022-11-23T10:24:27.318Z,81.41
2022-11-23T10:25:27.271Z,81.71
2022-11-23T10:26:27.318Z,81.10
2022-11-23T10:27:27.287Z,81.68
2022-11-23T10:28:27.298Z,81.57
2022-11-23T10:29:27.221Z,81.57
2022-11-23T10:30:27.229Z,81.16
2022-11-23T10:31:27.206Z,81.27
2022-11-23T10:32:27.253Z,81.48
2022-11-23T10:33:27.168Z,82.19
2022-11-23T10:34:27.189Z,82.50
2022-11-23T10:35:27.152Z,82.29
2022-11-23T10:36:27.221Z,82.09
2022-11-23T10:37:27.135Z,80.96
2022-11-23T10:38:27.170Z,81.37
2022-11-23T10:39:27.102Z,80.82
2022-11-23T10:40:27.112Z,81.43
2022-11-23T10:41:27.068Z,81.43
2022-11-23T10:42:27.094Z,81.54
2022-11-23T10:43:27.083Z,81.85
2022-11-23T10:44:27.052Z,81.23
2022-11-23T10:45:27.048Z,80.72
2022-11-23T10:46:27.049Z,81.02
2022-11-23T10:47:27.023Z,81.34
2022-11-23T10:48:26.989Z,81.13
2022-11-23T10:49:26.992Z,81.02
2022-11-23T10:50:27.062Z,81.02
2022-11-23T10:51:27.241Z,80.82
2022-11-23T10:52:26.955Z,80.72
2022-11-23T10:53:26.951Z,80.72
2022-11-23T10:54:26.975Z,80.31
2022-11-23T10:55:26.901Z,80.51
2022-11-23T10:56:26.987Z,79.66
2022-11-23T10:57:26.925Z,79.66
2022-11-23T10:58:26.884Z,78.53
2022-11-23T10:59:27.575Z,78.63
2022-11-23T11:00:30.594Z,78.63
2022-11-23T11:01:26.890Z,78.74
2022-11-23T11:02:26.860Z,79.04
2022-11-23T11:03:26.835Z,78.94
2022-11-23T11:04:27.699Z,78.32
2022-11-23T11:05:46.423Z,78.53
2022-11-23T11:06:27.799Z,78.74
2022-11-23T11:07:26.854Z,78.42
2022-11-23T11:08:26.782Z,77.71
2022-11-23T11:09:26.724Z,77.91
2022-11-23T11:10:26.702Z,78.22
2022-11-23T11:11:26.734Z,77.71
2022-11-23T11:12:26.682Z,78.42
2022-11-23T11:13:26.695Z,78.63
2022-11-23T11:14:26.638Z,78.22
2022-11-23T11:15:27.596Z,77.71
2022-11-23T11:16:26.657Z,78.53
2022-11-23T11:17:26.668Z,78.42
2022-11-23T11:18:26.658Z,78.63
2022-11-23T11:19:26.676Z,78.42
2022-11-23T11:20:26.607Z,78.22
2022-11-23T11:21:26.650Z,78.83
2022-11-23T11:22:26.614Z,78.63
2022-11-23T11:23:26.542Z,78.22
2022-11-23T11:24:26.560Z,78.22
2022-11-23T11:25:26.509Z,78.63
2022-11-23T11:26:26.509Z,78.42
2022-11-23T11:27:26.510Z,77.71
2022-11-23T11:28:26.515Z,76.78
2022-11-23T11:29:26.496Z,77.61
2022-11-23T11:30:26.448Z,78.53
2022-11-23T11:31:26.514Z,78.22
2022-11-23T11:32:26.496Z,77.91
2022-11-23T11:33:26.448Z,78.74
2022-11-23T11:34:26.429Z,77.81
2022-11-23T11:35:26.435Z,77.40
2022-11-23T11:36:26.396Z,77.67
2022-11-23T11:37:26.407Z,77.47
2022-11-23T11:38:26.395Z,78.19
2022-11-23T11:39:26.357Z,77.87
2022-11-23T11:40:26.374Z,77.16
2022-11-23T11:41:26.337Z,77.36
2022-11-23T11:42:26.287Z,77.36
2022-11-23T11:43:34.734Z,77.47
2022-11-23T11:44:27.290Z,77.47
2022-11-23T11:45:26.327Z,77.87
2022-11-23T11:46:30.124Z,77.16
2022-11-23T11:47:26.276Z,77.26
2022-11-23T11:48:26.252Z,77.67
2022-11-23T11:49:27.235Z,77.87
2022-11-23T11:50:31.402Z,77.77
2022-11-23T11:51:27.230Z,78.19
2022-11-23T11:52:26.278Z,77.26
2022-11-23T11:53:26.156Z,76.75
2022-11-23T11:54:26.164Z,76.95
2022-11-23T11:55:26.196Z,78.19
2022-11-23T11:56:26.199Z,77.57
2022-11-23T11:57:26.169Z,77.26
2022-11-23T11:58:26.150Z,77.16
2022-11-23T11:59:26.115Z,77.26
2022-11-23T12:00:26.090Z,76.75
2022-11-23T12:01:26.129Z,77.87
2022-11-23T12:02:26.163Z,78.70
2022-11-23T12:03:26.109Z,77.26
2022-11-23T12:04:26.031Z,77.26
2022-11-23T12:05:26.045Z,77.47
2022-11-23T12:06:26.899Z,76.85
2022-11-23T12:07:26.049Z,77.67
2022-11-23T12:08:25.961Z,78.59
2022-11-23T12:09:25.998Z,78.80
2022-11-23T12:10:25.952Z,78.59
2022-11-23T12:11:25.965Z,78.59
2022-11-23T12:12:30.023Z,77.57
2022-11-23T12:13:25.955Z,77.77
2022-11-23T12:14:25.917Z,78.39
2022-11-23T12:15:48.337Z,79.21
2022-11-23T12:16:26.852Z,79.48
2022-11-23T12:17:32.698Z,79.11
2022-11-23T12:18:26.866Z,79.00
2022-11-23T12:19:25.866Z,79.62
2022-11-23T12:20:25.868Z,78.80
2022-11-23T12:21:25.897Z,78.08
2022-11-23T12:22:25.799Z,78.45
2022-11-23T12:23:25.848Z,78.76
2022-11-23T12:24:25.743Z,78.56
2022-11-23T12:25:25.744Z,77.23
2022-11-23T12:26:25.788Z,77.43
2022-11-23T12:27:25.764Z,77.43
2022-11-23T12:28:25.721Z,77.94
2022-11-23T12:29:25.727Z,78.56
2022-11-23T12:30:25.699Z,78.25
2022-11-23T12:31:25.716Z,77.53
2022-11-23T12:49:41.748Z,78.97
2022-11-23T12:50:23.517Z,78.25
2022-11-23T12:51:18.694Z,77.53
2022-11-23T12:52:22.284Z,77.23
2022-11-23T13:03:17.530Z,77.47
2022-11-23T13:07:20.707Z,77.57
2022-11-23T13:22:48.703Z,77.67
2022-11-23T13:24:47.711Z,77.87
2022-11-23T13:26:46.455Z,77.67
2022-11-23T13:27:46.445Z,76.85
2022-11-23T13:28:46.422Z,77.26
2022-11-23T13:29:46.409Z,77.67
2022-11-23T13:31:14.673Z,77.57
2022-11-23T13:31:47.493Z,77.98
2022-11-23T13:32:46.372Z,77.87
2022-11-23T13:33:46.350Z,77.47
2022-11-23T13:34:46.364Z,77.98
2022-11-23T13:35:46.316Z,77.98
2022-11-23T13:37:47.335Z,77.77
2022-11-23T13:38:46.269Z,77.77
2022-11-23T13:39:46.311Z,78.28
2022-11-23T13:40:46.294Z,78.83
2022-11-23T13:41:46.245Z,78.53
2022-11-23T13:42:46.249Z,78.74
2022-11-23T13:43:46.251Z,78.32
2022-11-23T13:44:46.215Z,78.53
2022-11-23T13:45:46.267Z,78.63
2022-11-23T13:46:46.186Z,78.32
2022-11-23T13:47:46.186Z,78.32
2022-11-23T13:48:56.799Z,77.91
2022-11-23T13:49:47.156Z,78.32
2022-11-23T13:50:46.116Z,78.53
2022-11-23T13:51:46.142Z,78.32
2022-11-23T13:52:46.121Z,78.12
2022-11-23T13:53:46.121Z,78.12
2022-11-23T13:54:46.111Z,78.32
2022-11-23T13:55:46.083Z,78.12
2022-11-23T13:56:46.044Z,78.32